Siletz, OR (97380)

2:36 AM PST on February 08, 2016 (GMT -0800)
Ed & Pams Station | | Change Station
CLOSE
Current Station
Personal Weather Station
Location: Siletz, OR
Elevation: 95 ft
Nearby Weather Stations

Elev 95 ft 44.80 °N, 123.90 °W | Updated 22 seconds ago

Clear
Clear
40.0 °F
Feels Like 40.0 °F
N
0.0
Wind Variable Wind from NNE
Gusts 4.0 mph

Today
High -- | Low -- °F
--% Chance of Precip.
Yesterday
High -- | Low -- °F
Precip. -- in
Pressure 30.37 in
Visibility 10.0 miles
Clouds Clear
Dew Point 39.2 °F
Humidity 97%
Rainfall 0.00 in
Snow Depth Not available.
7:26 AM 5:33 PM
Waning Crescent, 0% visible
METAR KONP 081015Z AUTO 09013KT 10SM CLR 13/07 A3037 RMK AO2
Pressure 30.37 in
Visibility 10.0 miles
Clouds Clear
Dew Point 39.2 °F
Humidity 97%
Rainfall 0.00 in
Snow Depth Not available.
7:26 AM 5:33 PM
Waning Crescent, 0% visible
METAR KONP 081015Z AUTO 09013KT 10SM CLR 13/07 A3037 RMK AO2

10-Day Weather Forecast

Almanac

Astronomy

Feb. 08, 2016 Rise Set
Actual Time
Civil Twilight
Nautical Twilight
Astronomical Twilight
Moon
Length of Visible Light
Length of Day
Tomorrow will be .
, % of the Moon is Illuminated

Today's Extremes

State Highs State Lows

Community

WunderPhotos

Upload Photos

1,891,420 photos uploaded!

WunderBlog® & News

Nearby

Air Quality

  Air Quality AQ Index Pollutant
Not available.

Snow Depth

Station Depth Elevation

Earthquake Activity

City Distance Mag. Time & Date
Minimum magnitude displayed is 2.5.

Coastal Water Temperatures

Place Temperature

Stations

Nearby Weather Stations

Station Location Temp. Windchill Dew Point Humidity Wind Precip. Elev Updated Type
                   

Watches & Warnings

There are currently no watches in effect.